Time;durP1;ratioP1;P1;durP2;ratioP2;P2;SDS_P1;SDS_P2;PMS_P1;PMS_P2;Temp;Humidity;BMP_temperature;BMP_pressure;BME280_temperature;BME280_humidity;BME280_pressure;Samples;Min_cycle;Max_cycle;Signal;HPM_P1;HPM_P2
2023/08/20 00:00:56;;;;;;;9.57;3.30;;;;;;;;;;4959791;28;99179;-85
2023/08/20 00:03:23;;;;;;;11.95;3.65;;;;;;;;;;4950075;28;98821;-85
2023/08/20 00:05:49;;;;;;;8.98;3.63;;;;;;;;;;4963056;28;99671;-85
2023/08/20 00:08:16;;;;;;;10.85;3.72;;;;;;;;;;4958776;28;98413;-85
2023/08/20 00:10:43;;;;;;;10.60;3.80;;;;;;;;;;4970141;28;98493;-85
2023/08/20 00:13:09;;;;;;;10.43;3.58;;;;;;;;;;4966379;28;98505;-85
2023/08/20 00:15:36;;;;;;;10.43;3.47;;;;;;;;;;4961188;28;98690;-84
2023/08/20 00:18:02;;;;;;;11.95;3.67;;;;;;;;;;4954502;28;99044;-84
2023/08/20 00:20:29;;;;;;;10.65;3.78;;;;;;;;;;4959954;28;100016;-84
2023/08/20 00:22:56;;;;;;;10.65;3.80;;;;;;;;;;4958366;28;97967;-85
2023/08/20 00:25:23;;;;;;;10.52;3.92;;;;;;;;;;4963574;28;99210;-85
2023/08/20 00:27:49;;;;;;;9.65;3.50;;;;;;;;;;4943144;28;98529;-86
2023/08/20 00:30:16;;;;;;;8.85;3.50;;;;;;;;;;4945128;28;99288;-85
2023/08/20 00:32:44;;;;;;;11.15;4.13;;;;;;;;;;4942264;28;99180;-85
2023/08/20 00:35:11;;;;;;;8.77;3.55;;;;;;;;;;4946353;28;98672;-85
2023/08/20 00:37:38;;;;;;;10.85;3.83;;;;;;;;;;4943986;28;101710;-86
2023/08/20 00:40:05;;;;;;;9.05;3.70;;;;;;;;;;4932345;28;101840;-86
2023/08/20 00:42:32;;;;;;;;;;;;;;;;;;4947470;28;99027;-86
2023/08/20 00:44:58;;;;;;;9.80;3.85;;;;;;;;;;4934398;28;108046;-86
2023/08/20 00:47:27;;;;;;;8.70;3.63;;;;;;;;;;4950234;28;98353;-86
2023/08/20 00:49:53;;;;;;;9.90;3.83;;;;;;;;;;4945515;28;98679;-86
2023/08/20 00:52:20;;;;;;;11.15;3.70;;;;;;;;;;4939402;28;99035;-86
2023/08/20 00:54:47;;;;;;;9.73;3.75;;;;;;;;;;4950369;28;99332;-86
2023/08/20 00:57:15;;;;;;;11.38;4.40;;;;;;;;;;4943216;28;99596;-86
2023/08/20 00:59:41;;;;;;;9.73;3.83;;;;;;;;;;4944118;28;99277;-86
2023/08/20 01:02:08;;;;;;;8.75;3.47;;;;;;;;;;4948582;28;98877;-86
2023/08/20 01:04:35;;;;;;;10.70;3.83;;;;;;;;;;4942652;28;99368;-86
2023/08/20 01:07:23;;;;;;;9.38;3.55;;;;;;;;;;4943730;28;99152;-86
2023/08/20 01:10:10;;;;;;;9.05;3.55;;;;;;;;;;4933965;28;98574;-86
2023/08/20 01:12:38;;;;;;;8.10;3.40;;;;;;;;;;4934651;28;99887;-86
2023/08/20 01:15:05;;;;;;;10.23;3.30;;;;;;;;;;4950436;28;98836;-86
2023/08/20 01:17:31;;;;;;;10.15;3.30;;;;;;;;;;4942420;28;101090;-86
2023/08/20 01:19:58;;;;;;;10.65;3.55;;;;;;;;;;4942886;28;99778;-86
2023/08/20 01:22:47;;;;;;;11.57;3.85;;;;;;;;;;4945541;28;98722;-86
2023/08/20 01:25:29;;;;;;;8.20;2.92;;;;;;;;;;4924141;28;98627;-86
2023/08/20 01:27:55;;;;;;;8.18;3.15;;;;;;;;;;4949637;28;99173;-86
2023/08/20 01:30:22;;;;;;;8.82;3.20;;;;;;;;;;4947229;28;98541;-86
2023/08/20 01:32:50;;;;;;;8.25;2.80;;;;;;;;;;4931158;28;101629;-86
2023/08/20 01:35:17;;;;;;;9.77;3.10;;;;;;;;;;4948313;28;98892;-86
2023/08/20 01:37:44;;;;;;;9.27;3.30;;;;;;;;;;4948011;28;101980;-87
2023/08/20 01:40:11;;;;;;;8.57;3.03;;;;;;;;;;4947892;28;99137;-86
2023/08/20 01:42:38;;;;;;;9.25;3.05;;;;;;;;;;4948503;28;99011;-87
2023/08/20 01:45:05;;;;;;;8.60;2.97;;;;;;;;;;4949126;28;100087;-87
2023/08/20 01:47:32;;;;;;;9.88;2.95;;;;;;;;;;4949441;28;100529;-87
2023/08/20 01:49:59;;;;;;;7.35;2.72;;;;;;;;;;4935367;28;98508;-87
2023/08/20 01:52:26;;;;;;;7.82;2.97;;;;;;;;;;4951601;28;98776;-87
2023/08/20 01:54:53;;;;;;;8.23;3.00;;;;;;;;;;4948037;28;98624;-87
2023/08/20 01:57:19;;;;;;;7.80;2.90;;;;;;;;;;4947546;28;98838;-87
2023/08/20 01:59:47;;;;;;;8.65;2.72;;;;;;;;;;4947546;28;100995;-87
2023/08/20 02:02:14;;;;;;;7.85;2.90;;;;;;;;;;4943571;28;98250;-87
2023/08/20 02:04:40;;;;;;;7.65;2.83;;;;;;;;;;4939211;28;100975;-87
2023/08/20 02:07:07;;;;;;;8.90;3.33;;;;;;;;;;4948224;28;100391;-88
2023/08/20 02:09:33;;;;;;;7.28;2.92;;;;;;;;;;4948650;28;99281;-87
2023/08/20 02:12:00;;;;;;;7.20;2.70;;;;;;;;;;4947441;28;102735;-87
2023/08/20 02:14:28;;;;;;;9.35;3.33;;;;;;;;;;4938961;28;99503;-87
2023/08/20 02:16:57;;;;;;;10.93;3.40;;;;;;;;;;4936037;28;98885;-87
2023/08/20 02:19:24;;;;;;;7.07;2.92;;;;;;;;;;4947255;28;101967;-87
2023/08/20 02:21:52;;;;;;;8.65;3.08;;;;;;;;;;4952382;28;98547;-86
2023/08/20 02:24:19;;;;;;;9.10;3.30;;;;;;;;;;4949001;28;98729;-86
2023/08/20 02:26:46;;;;;;;8.88;3.20;;;;;;;;;;4940840;28;99693;-85
2023/08/20 02:29:12;;;;;;;11.32;3.42;;;;;;;;;;4951716;28;98509;-86
2023/08/20 02:31:39;;;;;;;9.65;3.45;;;;;;;;;;4940552;28;101631;-86
2023/08/20 02:34:05;;;;;;;7.82;3.20;;;;;;;;;;4947927;28;100003;-86
2023/08/20 02:36:32;;;;;;;9.52;3.15;;;;;;;;;;4949945;28;99202;-85
2023/08/20 02:38:58;;;;;;;9.85;3.50;;;;;;;;;;4936245;28;99191;-86
2023/08/20 02:41:25;;;;;;;10.80;2.83;;;;;;;;;;4943721;28;99879;-85
2023/08/20 02:43:51;;;;;;;8.38;3.33;;;;;;;;;;4949291;28;98924;-85
2023/08/20 02:46:19;;;;;;;9.02;3.40;;;;;;;;;;4947341;28;98428;-85
2023/08/20 02:48:46;;;;;;;9.23;3.92;;;;;;;;;;4942323;28;98986;-85
2023/08/20 02:51:12;;;;;;;9.25;3.78;;;;;;;;;;4945333;28;100019;-85
2023/08/20 02:53:39;;;;;;;10.10;3.70;;;;;;;;;;4927787;28;100368;-85
2023/08/20 02:56:06;;;;;;;9.93;3.28;;;;;;;;;;4940893;28;98825;-85
2023/08/20 02:58:32;;;;;;;9.10;3.75;;;;;;;;;;4939272;28;99186;-85
2023/08/20 03:00:59;;;;;;;9.07;3.72;;;;;;;;;;4948701;28;98968;-85
2023/08/20 03:03:25;;;;;;;9.45;4.13;;;;;;;;;;4948502;28;101189;-84
2023/08/20 03:05:52;;;;;;;10.48;3.83;;;;;;;;;;4946609;28;101394;-85
2023/08/20 03:08:19;;;;;;;8.27;3.45;;;;;;;;;;4934649;28;98783;-85
2023/08/20 03:10:45;;;;;;;10.55;3.95;;;;;;;;;;4948048;28;98803;-84
2023/08/20 03:13:12;;;;;;;10.20;3.80;;;;;;;;;;4946694;28;98494;-87
2023/08/20 03:15:38;;;;;;;11.65;3.78;;;;;;;;;;4947039;28;97829;-85
2023/08/20 03:18:05;;;;;;;10.98;3.90;;;;;;;;;;4946144;28;99257;-85
2023/08/20 03:20:32;;;;;;;10.13;3.40;;;;;;;;;;4940433;28;101837;-85
2023/08/20 03:22:59;;;;;;;9.32;3.33;;;;;;;;;;4948441;28;99617;-85
2023/08/20 03:25:25;;;;;;;8.63;3.20;;;;;;;;;;4947410;28;99092;-85
2023/08/20 03:27:53;;;;;;;9.77;3.55;;;;;;;;;;4949659;28;98587;-85
2023/08/20 03:30:19;;;;;;;8.10;3.70;;;;;;;;;;4939048;28;98948;-85
2023/08/20 03:32:46;;;;;;;9.18;3.67;;;;;;;;;;4942696;28;101669;-85
2023/08/20 03:35:13;;;;;;;10.93;3.22;;;;;;;;;;4946386;28;98621;-86
2023/08/20 03:37:41;;;;;;;10.43;3.58;;;;;;;;;;4945989;28;101341;-85
2023/08/20 03:40:07;;;;;;;8.63;2.72;;;;;;;;;;4934391;28;98336;-86
2023/08/20 03:42:34;;;;;;;8.52;3.33;;;;;;;;;;4949547;28;99299;-86
2023/08/20 03:45:02;;;;;;;7.60;3.30;;;;;;;;;;4927389;28;102168;-85
2023/08/20 03:47:29;;;;;;;9.50;3.20;;;;;;;;;;4935842;28;100075;-86
2023/08/20 03:49:56;;;;;;;8.45;3.25;;;;;;;;;;4945335;28;100032;-86
2023/08/20 03:52:22;;;;;;;8.57;3.15;;;;;;;;;;4945218;28;102419;-85
2023/08/20 03:54:50;;;;;;;12.27;3.35;;;;;;;;;;4931168;28;98966;-86
2023/08/20 03:57:17;;;;;;;10.18;2.97;;;;;;;;;;4946365;28;98809;-85
2023/08/20 03:59:45;;;;;;;7.30;2.97;;;;;;;;;;4946694;28;99301;-85
2023/08/20 04:02:12;;;;;;;9.48;3.15;;;;;;;;;;4942566;28;98744;-85
2023/08/20 04:04:39;;;;;;;8.95;3.08;;;;;;;;;;4939201;28;98442;-85
2023/08/20 04:07:05;;;;;;;9.75;2.97;;;;;;;;;;4946599;28;98704;-85
2023/08/20 04:09:33;;;;;;;9.63;3.08;;;;;;;;;;4945621;28;101952;-85
2023/08/20 04:12:00;;;;;;;8.07;2.80;;;;;;;;;;4920354;28;101259;-85
2023/08/20 04:14:26;;;;;;;8.50;2.50;;;;;;;;;;4947158;28;98492;-85
2023/08/20 04:16:53;;;;;;;8.43;2.33;;;;;;;;;;4946937;28;98689;-85
2023/08/20 04:19:19;;;;;;;7.07;3.00;;;;;;;;;;4946527;28;99300;-85
2023/08/20 04:21:46;;;;;;;6.85;2.30;;;;;;;;;;4936315;28;98587;-85
2023/08/20 04:24:12;;;;;;;6.03;2.45;;;;;;;;;;4945538;28;98678;-85
2023/08/20 04:26:39;;;;;;;7.38;2.60;;;;;;;;;;4942623;28;98568;-85
2023/08/20 04:29:06;;;;;;;8.60;2.50;;;;;;;;;;4929649;28;101406;-84
2023/08/20 04:31:32;;;;;;;7.18;2.47;;;;;;;;;;4949520;28;98982;-85
2023/08/20 04:34:04;;;;;;;6.57;2.58;;;;;;;;;;4937252;28;98579;-85
2023/08/20 04:36:38;;;;;;;8.07;2.78;;;;;;;;;;4947420;28;101462;-85
2023/08/20 04:39:05;;;;;;;6.30;2.20;;;;;;;;;;4935119;28;100432;-85
2023/08/20 04:41:35;;;;;;;6.47;2.47;;;;;;;;;;4946675;28;100394;-85
2023/08/20 04:44:02;;;;;;;7.38;2.42;;;;;;;;;;4951958;28;101380;-84
2023/08/20 04:46:29;;;;;;;7.65;2.63;;;;;;;;;;4937358;28;102121;-85
2023/08/20 04:48:56;;;;;;;7.72;2.50;;;;;;;;;;4948973;28;101449;-84
2023/08/20 04:51:23;;;;;;;5.97;2.70;;;;;;;;;;4950066;28;101404;-84
2023/08/20 04:53:50;;;;;;;7.20;2.20;;;;;;;;;;4949704;28;97802;-84
2023/08/20 04:56:17;;;;;;;7.55;2.78;;;;;;;;;;4943559;28;99864;-84
2023/08/20 04:58:44;;;;;;;6.90;2.67;;;;;;;;;;4947533;28;101846;-84
2023/08/20 05:01:33;;;;;;;6.30;2.60;;;;;;;;;;4933230;28;99428;-84
2023/08/20 05:04:00;;;;;;;6.47;2.35;;;;;;;;;;4948015;28;101782;-85
2023/08/20 05:06:27;;;;;;;10.10;2.65;;;;;;;;;;4946359;28;101352;-84
2023/08/20 05:08:54;;;;;;;7.93;2.80;;;;;;;;;;4948921;28;99065;-85
2023/08/20 05:11:21;;;;;;;7.45;2.45;;;;;;;;;;4938285;28;100409;-84
2023/08/20 05:13:49;;;;;;;7.05;2.47;;;;;;;;;;4947282;28;98642;-85
2023/08/20 05:16:16;;;;;;;6.30;2.63;;;;;;;;;;4947446;28;101676;-84
2023/08/20 05:18:43;;;;;;;7.40;2.33;;;;;;;;;;4947318;28;101108;-85
2023/08/20 05:21:13;;;;;;;7.95;2.75;;;;;;;;;;4931407;28;98665;-85
2023/08/20 05:23:40;;;;;;;8.77;2.80;;;;;;;;;;4933316;28;100821;-84
2023/08/20 05:26:07;;;;;;;11.27;2.95;;;;;;;;;;4943027;28;99944;-84
2023/08/20 05:28:34;;;;;;;;;;;;;;;;;;4947329;28;100273;-84
2023/08/20 05:31:00;;;;;;;7.97;2.70;;;;;;;;;;4944075;28;100528;-84
2023/08/20 05:33:27;;;;;;;10.27;3.10;;;;;;;;;;4947604;28;98965;-84
2023/08/20 05:35:54;;;;;;;;;;;;;;;;;;4946734;28;101867;-84
2023/08/20 05:38:21;;;;;;;7.70;2.88;;;;;;;;;;4942316;28;101455;-84
2023/08/20 05:40:49;;;;;;;10.48;3.33;;;;;;;;;;4939035;28;98665;-84
2023/08/20 05:43:16;;;;;;;7.65;2.35;;;;;;;;;;4948940;28;98603;-85
2023/08/20 05:45:43;;;;;;;;;;;;;;;;;;4936460;28;102199;-84
2023/08/20 05:48:15;;;;;;;8.90;2.80;;;;;;;;;;4945609;28;98737;-84
2023/08/20 05:50:41;;;;;;;9.05;3.15;;;;;;;;;;4951945;28;99219;-84
2023/08/20 05:53:08;;;;;;;8.20;2.80;;;;;;;;;;4934600;28;98532;-84
2023/08/20 05:55:34;;;;;;;9.70;3.03;;;;;;;;;;4939729;28;101405;-84
2023/08/20 05:58:01;;;;;;;9.77;2.90;;;;;;;;;;4941547;28;98911;-85
2023/08/20 06:00:27;;;;;;;8.10;2.80;;;;;;;;;;4948640;28;98573;-85
2023/08/20 06:02:54;;;;;;;10.32;2.88;;;;;;;;;;4946413;28;100115;-85
2023/08/20 06:05:21;;;;;;;10.07;3.20;;;;;;;;;;4942488;28;101564;-85
2023/08/20 06:07:47;;;;;;;9.48;2.50;;;;;;;;;;4936100;28;98404;-85
2023/08/20 06:10:14;;;;;;;13.25;3.33;;;;;;;;;;4944404;28;98542;-85
2023/08/20 06:12:40;;;;;;;13.23;3.40;;;;;;;;;;4950981;28;99140;-85
2023/08/20 06:15:07;;;;;;;9.30;2.90;;;;;;;;;;4947631;28;99539;-85
2023/08/20 06:17:34;;;;;;;9.18;3.00;;;;;;;;;;4947543;28;99215;-86
2023/08/20 06:20:01;;;;;;;10.52;3.55;;;;;;;;;;4947596;28;98579;-85
2023/08/20 06:22:27;;;;;;;10.98;3.33;;;;;;;;;;4959563;28;99823;-86
2023/08/20 06:24:54;;;;;;;8.32;2.75;;;;;;;;;;4947895;28;100270;-84
2023/08/20 06:27:20;;;;;;;9.35;3.13;;;;;;;;;;4946739;28;98886;-85
2023/08/20 06:29:47;;;;;;;10.27;2.80;;;;;;;;;;4947964;28;99405;-85
2023/08/20 06:32:13;;;;;;;8.63;2.38;;;;;;;;;;4941304;28;98559;-85
2023/08/20 06:34:40;;;;;;;10.55;2.95;;;;;;;;;;4951599;28;98456;-85
2023/08/20 06:37:07;;;;;;;8.45;2.50;;;;;;;;;;4947632;28;99144;-85
2023/08/20 06:39:33;;;;;;;9.98;2.65;;;;;;;;;;4934040;28;99843;-85
2023/08/20 06:42:00;;;;;;;11.57;2.63;;;;;;;;;;4947984;28;99556;-86
2023/08/20 06:44:27;;;;;;;10.05;2.78;;;;;;;;;;4934165;28;99811;-85
2023/08/20 06:46:53;;;;;;;8.18;2.13;;;;;;;;;;4946649;28;98574;-85
2023/08/20 06:49:20;;;;;;;9.27;2.63;;;;;;;;;;4946828;28;98940;-86
2023/08/20 06:51:46;;;;;;;7.50;1.80;;;;;;;;;;4947991;28;99089;-86
2023/08/20 06:54:14;;;;;;;9.82;2.60;;;;;;;;;;4948227;28;98597;-85
2023/08/20 06:56:41;;;;;;;7.40;2.00;;;;;;;;;;4937882;28;99435;-86
2023/08/20 06:59:07;;;;;;;10.00;2.33;;;;;;;;;;4946701;28;98931;-86
2023/08/20 07:01:34;;;;;;;8.13;2.22;;;;;;;;;;4947609;28;99228;-86
2023/08/20 07:04:00;;;;;;;9.80;2.17;;;;;;;;;;4951531;28;99823;-85
2023/08/20 07:06:30;;;;;;;11.35;2.60;;;;;;;;;;4947932;28;98516;-86
2023/08/20 07:08:56;;;;;;;8.82;2.20;;;;;;;;;;4950278;28;99062;-85
2023/08/20 07:11:23;;;;;;;8.35;2.30;;;;;;;;;;4953721;28;99184;-85
2023/08/20 07:13:49;;;;;;;8.63;2.15;;;;;;;;;;4954433;28;98959;-86
2023/08/20 07:16:16;;;;;;;11.20;2.50;;;;;;;;;;4952880;28;101602;-85
2023/08/20 07:18:43;;;;;;;9.82;2.40;;;;;;;;;;4960501;28;100135;-85
2023/08/20 07:21:09;;;;;;;13.38;2.63;;;;;;;;;;4952389;28;98907;-85
2023/08/20 07:23:36;;;;;;;10.30;2.28;;;;;;;;;;4937216;28;100716;-86
2023/08/20 07:26:06;;;;;;;10.15;2.10;;;;;;;;;;4946308;28;98975;-83
2023/08/20 07:31:18;;;;;;;9.55;2.10;;;;;;;;;;4948118;28;99793;-85
2023/08/20 07:33:48;;;;;;;8.77;2.10;;;;;;;;;;4941168;28;98985;-86
2023/08/20 07:36:15;;;;;;;11.32;2.40;;;;;;;;;;4925148;28;101934;-85
2023/08/20 07:38:42;;;;;;;8.85;2.13;;;;;;;;;;4932622;28;100098;-85
2023/08/20 07:41:13;;;;;;;7.78;1.85;;;;;;;;;;4940862;28;99259;-87
2023/08/20 07:43:40;;;;;;;8.25;2.00;;;;;;;;;;4949856;28;100439;-87
2023/08/20 07:46:07;;;;;;;8.82;2.10;;;;;;;;;;4947652;28;97846;-87
2023/08/20 07:48:34;;;;;;;10.25;2.33;;;;;;;;;;4948357;28;98906;-87
2023/08/20 07:51:02;;;;;;;8.73;2.00;;;;;;;;;;4947451;28;99202;-87
2023/08/20 07:53:29;;;;;;;10.98;2.40;;;;;;;;;;4945939;28;99878;-87
2023/08/20 07:55:55;;;;;;;8.23;1.92;;;;;;;;;;4940352;28;99557;-86
2023/08/20 07:58:22;;;;;;;11.75;2.45;;;;;;;;;;4941817;28;102492;-86
2023/08/20 08:00:49;;;;;;;9.68;1.67;;;;;;;;;;4941461;28;98767;-88
2023/08/20 08:03:16;;;;;;;10.07;2.10;;;;;;;;;;4924547;28;102360;-87
2023/08/20 08:05:47;;;;;;;8.70;1.65;;;;;;;;;;4949687;28;98523;-86
2023/08/20 08:08:17;;;;;;;7.47;1.95;;;;;;;;;;4936967;28;100391;-87
2023/08/20 08:10:45;;;;;;;9.98;2.08;;;;;;;;;;4940261;28;97847;-84
2023/08/20 08:13:11;;;;;;;;;;;;;;;;;;4953359;28;98500;-87
2023/08/20 08:15:38;;;;;;;6.50;1.55;;;;;;;;;;4968007;28;98392;-87
2023/08/20 08:18:05;;;;;;;6.75;1.60;;;;;;;;;;4963964;28;100333;-85
2023/08/20 08:20:31;;;;;;;5.25;1.58;;;;;;;;;;4965456;28;98416;-87
2023/08/20 08:22:58;;;;;;;5.70;1.50;;;;;;;;;;4971618;28;99270;-88
2023/08/20 08:25:25;;;;;;;6.72;1.52;;;;;;;;;;4956974;28;98596;-84
2023/08/20 08:27:51;;;;;;;6.20;1.55;;;;;;;;;;4958073;28;100172;-87
2023/08/20 08:30:29;;;;;;;7.10;1.48;;;;;;;;;;4959631;28;99536;-86
2023/08/20 08:32:56;;;;;;;8.30;1.50;;;;;;;;;;4957907;28;98871;-85
2023/08/20 08:35:22;;;;;;;8.10;1.77;;;;;;;;;;4943522;28;100060;-85
2023/08/20 08:37:49;;;;;;;7.30;1.50;;;;;;;;;;4951426;28;99455;-86
2023/08/20 08:40:16;;;;;;;8.40;1.60;;;;;;;;;;4952275;28;98533;-88
2023/08/20 08:42:42;;;;;;;7.70;1.60;;;;;;;;;;4949705;28;99928;-87
2023/08/20 08:45:11;;;;;;;7.10;1.45;;;;;;;;;;4951284;28;101031;-87
2023/08/20 08:47:39;;;;;;;5.93;1.48;;;;;;;;;;4948665;28;99066;-87
2023/08/20 08:50:06;;;;;;;6.80;1.60;;;;;;;;;;4948706;28;99201;-86
2023/08/20 08:52:33;;;;;;;8.25;1.38;;;;;;;;;;4948830;28;98698;-87
2023/08/20 08:55:00;;;;;;;5.85;1.42;;;;;;;;;;4933781;28;100078;-87
2023/08/20 08:57:27;;;;;;;8.90;1.58;;;;;;;;;;4940756;28;99095;-88
2023/08/20 08:59:53;;;;;;;6.07;1.70;;;;;;;;;;4940426;28;98244;-88
2023/08/20 09:02:20;;;;;;;5.88;1.38;;;;;;;;;;4954328;28;99771;-87
2023/08/20 09:04:46;;;;;;;9.68;1.80;;;;;;;;;;4932672;28;100416;-88
2023/08/20 09:07:14;;;;;;;7.95;1.75;;;;;;;;;;4954630;28;99769;-88
2023/08/20 09:09:44;;;;;;;6.80;1.50;;;;;;;;;;4949790;28;99955;-87
2023/08/20 09:12:16;;;;;;;6.00;1.70;;;;;;;;;;4950487;28;99065;-87
2023/08/20 09:14:49;;;;;;;6.68;1.58;;;;;;;;;;4936795;28;98797;-87
2023/08/20 09:17:16;;;;;;;8.13;1.50;;;;;;;;;;4938093;28;99351;-89
2023/08/20 09:19:44;;;;;;;;;;;;;;;;;;4931798;28;99982;-87
2023/08/20 09:22:14;;;;;;;8.77;1.70;;;;;;;;;;4935779;28;98606;-89
2023/08/20 09:24:47;;;;;;;8.77;1.58;;;;;;;;;;4941139;28;98485;-87
2023/08/20 09:27:14;;;;;;;7.07;1.60;;;;;;;;;;4949471;28;98555;-88
2023/08/20 09:29:50;;;;;;;6.88;1.52;;;;;;;;;;4934353;28;98766;-86
2023/08/20 09:32:20;;;;;;;5.72;1.40;;;;;;;;;;4931429;28;99686;-86
2023/08/20 09:34:47;;;;;;;7.18;1.45;;;;;;;;;;4944398;28;100902;-86
2023/08/20 09:37:18;;;;;;;5.88;1.50;;;;;;;;;;4941787;28;100231;-87
2023/08/20 09:39:45;;;;;;;6.93;1.30;;;;;;;;;;4933269;28;98800;-87
2023/08/20 09:42:14;;;;;;;6.20;1.42;;;;;;;;;;4949180;28;100260;-87
2023/08/20 09:44:44;;;;;;;2.17;0.95;;;;;;;;;;4944767;28;99067;-89
2023/08/20 09:47:16;;;;;;;8.07;1.20;;;;;;;;;;4941494;28;98441;-87
2023/08/20 09:49:44;;;;;;;5.65;1.38;;;;;;;;;;4947449;28;98965;-86
2023/08/20 09:52:11;;;;;;;4.00;1.10;;;;;;;;;;4954819;28;99758;-86
2023/08/20 09:54:44;;;;;;;6.38;1.27;;;;;;;;;;4938077;28;98711;-85
2023/08/20 09:57:14;;;;;;;5.30;1.33;;;;;;;;;;4948553;28;99923;-85
2023/08/20 09:59:41;;;;;;;5.65;1.20;;;;;;;;;;4949979;28;99129;-90
2023/08/20 10:02:09;;;;;;;5.47;1.20;;;;;;;;;;4949893;28;99008;-89
2023/08/20 10:04:36;;;;;;;6.60;1.20;;;;;;;;;;4948852;28;99180;-88
2023/08/20 10:07:03;;;;;;;7.28;1.40;;;;;;;;;;4941836;28;98744;-87
2023/08/20 10:09:30;;;;;;;4.07;1.17;;;;;;;;;;4936913;28;99629;-87
2023/08/20 10:11:56;;;;;;;6.13;1.33;;;;;;;;;;4951203;28;98584;-87
2023/08/20 10:14:23;;;;;;;5.53;1.30;;;;;;;;;;4947862;28;100372;-87
2023/08/20 10:16:50;;;;;;;7.35;1.50;;;;;;;;;;4947582;28;99216;-86
2023/08/20 10:19:17;;;;;;;4.75;1.10;;;;;;;;;;4946471;28;98625;-88
2023/08/20 10:21:45;;;;;;;5.55;1.25;;;;;;;;;;4939588;28;100031;-88
2023/08/20 10:24:21;;;;;;;5.68;1.25;;;;;;;;;;4930473;28;99795;-88
2023/08/20 10:26:48;;;;;;;6.18;1.20;;;;;;;;;;4928139;28;99046;-88
2023/08/20 10:29:34;;;;;;;5.80;1.23;;;;;;;;;;4947470;28;99164;-89
2023/08/20 10:32:00;;;;;;;4.15;1.30;;;;;;;;;;4947244;28;99338;-85
2023/08/20 10:34:40;;;;;;;4.63;1.40;;;;;;;;;;4952064;28;98820;-84
2023/08/20 10:37:10;;;;;;;7.78;1.48;;;;;;;;;;4945512;28;102028;-86
2023/08/20 10:39:37;;;;;;;5.63;1.48;;;;;;;;;;4934780;28;97935;-84
2023/08/20 10:42:23;;;;;;;4.55;1.30;;;;;;;;;;4947802;28;98478;-87
2023/08/20 10:45:03;;;;;;;7.32;1.40;;;;;;;;;;4925781;28;99147;-85
2023/08/20 10:47:47;;;;;;;6.43;1.77;;;;;;;;;;4946773;28;101092;-86
2023/08/20 10:50:17;;;;;;;6.35;1.35;;;;;;;;;;4947307;28;99580;-85
2023/08/20 10:52:47;;;;;;;4.57;1.20;;;;;;;;;;4946308;28;100352;-85
2023/08/20 10:55:14;;;;;;;5.38;1.08;;;;;;;;;;4948049;28;98570;-85
2023/08/20 10:57:41;;;;;;;4.43;1.20;;;;;;;;;;4938449;28;98826;-85
2023/08/20 11:00:16;;;;;;;5.75;1.10;;;;;;;;;;4937922;28;99112;-86
2023/08/20 11:02:43;;;;;;;7.10;1.30;;;;;;;;;;4933769;28;98681;-85
2023/08/20 11:05:17;;;;;;;4.45;1.10;;;;;;;;;;4949986;28;99013;-87
2023/08/20 11:07:48;;;;;;;11.75;1.48;;;;;;;;;;4951484;28;98904;-86
2023/08/20 11:10:17;;;;;;;6.03;1.40;;;;;;;;;;4953221;28;98595;-84
2023/08/20 11:12:46;;;;;;;21.90;2.20;;;;;;;;;;4954102;28;100283;-83
2023/08/20 11:15:12;;;;;;;7.38;1.42;;;;;;;;;;4951822;28;98960;-85
2023/08/20 11:17:42;;;;;;;4.40;1.10;;;;;;;;;;4950793;28;99188;-87
2023/08/20 11:20:11;;;;;;;3.50;1.10;;;;;;;;;;4947115;28;99183;-87
2023/08/20 11:22:39;;;;;;;4.50;1.40;;;;;;;;;;4948681;28;99028;-89
2023/08/20 11:25:06;;;;;;;8.00;1.17;;;;;;;;;;4924059;28;100954;-86
2023/08/20 11:27:33;;;;;;;5.07;1.30;;;;;;;;;;4942386;28;99221;-89
2023/08/20 11:30:00;;;;;;;6.35;1.30;;;;;;;;;;4937402;28;98611;-83
2023/08/20 11:32:26;;;;;;;4.82;1.42;;;;;;;;;;4934159;28;100750;-83
2023/08/20 11:34:53;;;;;;;5.13;1.40;;;;;;;;;;4951191;28;98682;-84
2023/08/20 11:37:22;;;;;;;6.32;1.10;;;;;;;;;;4935622;28;100525;-83
2023/08/20 11:39:49;;;;;;;3.85;1.20;;;;;;;;;;4920392;28;99204;-84
2023/08/20 11:42:16;;;;;;;4.07;1.20;;;;;;;;;;4947692;28;98792;-84
2023/08/20 11:44:44;;;;;;;4.85;1.10;;;;;;;;;;4946132;28;99111;-83
2023/08/20 11:47:16;;;;;;;4.18;1.00;;;;;;;;;;4946101;28;98538;-85
2023/08/20 11:49:43;;;;;;;5.20;1.00;;;;;;;;;;4946090;28;99104;-84
2023/08/20 11:52:10;;;;;;;5.95;1.33;;;;;;;;;;4945426;28;100722;-84
2023/08/20 11:54:37;;;;;;;;;;;;;;;;;;4947330;28;97882;-84
2023/08/20 11:57:05;;;;;;;4.80;1.35;;;;;;;;;;4940909;28;124245;-84
2023/08/20 11:59:31;;;;;;;6.25;1.30;;;;;;;;;;4937805;28;100197;-84
2023/08/20 12:02:00;;;;;;;6.30;1.10;;;;;;;;;;4931880;28;99914;-84
2023/08/20 12:04:27;;;;;;;4.75;1.33;;;;;;;;;;4948399;28;99474;-84
2023/08/20 12:07:04;;;;;;;5.20;1.40;;;;;;;;;;4931678;28;98539;-84
2023/08/20 12:09:30;;;;;;;3.63;1.10;;;;;;;;;;4946110;28;98961;-84
2023/08/20 12:11:57;;;;;;;5.10;1.20;;;;;;;;;;4945422;28;99831;-84
2023/08/20 12:14:24;;;;;;;;;;;;;;;;;;4944985;28;98993;-83
2023/08/20 12:16:51;;;;;;;3.90;1.20;;;;;;;;;;4939202;28;98846;-84
2023/08/20 12:19:17;;;;;;;4.45;1.23;;;;;;;;;;4939979;28;99367;-85
2023/08/20 12:21:44;;;;;;;4.38;1.10;;;;;;;;;;4928345;28;99058;-84
2023/08/20 12:24:11;;;;;;;3.67;1.17;;;;;;;;;;4946727;28;99045;-84
2023/08/20 12:26:38;;;;;;;5.78;1.30;;;;;;;;;;4928756;28;99688;-84
2023/08/20 12:29:05;;;;;;;3.72;0.98;;;;;;;;;;4943748;28;99489;-84
2023/08/20 12:31:32;;;;;;;3.63;1.15;;;;;;;;;;4942305;28;99236;-84
2023/08/20 12:33:59;;;;;;;5.15;1.02;;;;;;;;;;4946336;28;99097;-83
2023/08/20 12:36:26;;;;;;;;;;;;;;;;;;4945628;28;98888;-82
2023/08/20 12:38:52;;;;;;;5.15;1.30;;;;;;;;;;4930191;28;126736;-83
2023/08/20 12:41:19;;;;;;;4.28;1.20;;;;;;;;;;4945349;28;98590;-83
2023/08/20 12:43:45;;;;;;;;;;;;;;;;;;4936032;28;99513;-84
2023/08/20 12:46:13;;;;;;;4.53;1.10;;;;;;;;;;4949760;28;99157;-83
2023/08/20 12:48:40;;;;;;;5.38;1.40;;;;;;;;;;4947605;28;100237;-83
2023/08/20 12:51:07;;;;;;;4.40;1.40;;;;;;;;;;4948172;28;101110;-82
2023/08/20 12:53:33;;;;;;;;;;;;;;;;;;4948918;28;98528;-85
2023/08/20 12:56:00;;;;;;;4.70;1.30;;;;;;;;;;4949017;28;101862;-83
2023/08/20 12:58:27;;;;;;;3.35;1.40;;;;;;;;;;4947413;28;99254;-82
2023/08/20 13:00:53;;;;;;;4.63;1.50;;;;;;;;;;4935608;28;99542;-86
2023/08/20 13:03:20;;;;;;;4.50;1.30;;;;;;;;;;4949856;28;101093;-86
2023/08/20 13:05:47;;;;;;;8.18;1.40;;;;;;;;;;4949206;28;99036;-85
2023/08/20 13:08:14;;;;;;;7.63;1.50;;;;;;;;;;4954258;28;97961;-86
2023/08/20 13:10:41;;;;;;;5.28;1.50;;;;;;;;;;4950632;28;99217;-86
2023/08/20 13:13:07;;;;;;;;;;;;;;;;;;4935293;28;98677;-85
2023/08/20 13:15:34;;;;;;;4.22;1.15;;;;;;;;;;4951477;28;99664;-85
2023/08/20 13:18:04;;;;;;;4.18;1.15;;;;;;;;;;4950540;28;99679;-85
2023/08/20 13:20:31;;;;;;;5.03;1.20;;;;;;;;;;4948942;28;98556;-85
2023/08/20 13:22:57;;;;;;;;;;;;;;;;;;4941786;28;99312;-84
2023/08/20 13:25:24;;;;;;;3.85;1.10;;;;;;;;;;4965556;28;107557;-85
2023/08/20 13:27:50;;;;;;;4.82;1.42;;;;;;;;;;4965398;28;98604;-85
2023/08/20 13:30:17;;;;;;;3.28;1.10;;;;;;;;;;4955143;28;99325;-85
2023/08/20 13:32:44;;;;;;;4.78;1.20;;;;;;;;;;4945084;28;98255;-85
2023/08/20 13:35:11;;;;;;;5.90;1.40;;;;;;;;;;4937987;28;99314;-84
2023/08/20 13:37:37;;;;;;;6.05;1.20;;;;;;;;;;4947119;28;100103;-85
2023/08/20 13:40:04;;;;;;;4.15;1.10;;;;;;;;;;4934655;28;99381;-85
2023/08/20 13:42:31;;;;;;;;;;;;;;;;;;4949451;28;99697;-85
2023/08/20 13:44:57;;;;;;;4.68;1.20;;;;;;;;;;4949395;28;116404;-84
2023/08/20 13:47:26;;;;;;;4.03;1.10;;;;;;;;;;4949496;28;98916;-84
2023/08/20 13:49:53;;;;;;;3.47;1.00;;;;;;;;;;4947663;28;98997;-84
2023/08/20 13:52:19;;;;;;;2.85;1.20;;;;;;;;;;4950063;28;99455;-84
2023/08/20 13:54:46;;;;;;;3.60;1.13;;;;;;;;;;4948047;28;99912;-85
2023/08/20 13:57:12;;;;;;;6.68;1.20;;;;;;;;;;4935792;28;98467;-84
2023/08/20 13:59:41;;;;;;;4.63;1.25;;;;;;;;;;4948848;28;98878;-85
2023/08/20 14:02:08;;;;;;;5.28;1.23;;;;;;;;;;4947046;28;98873;-84
2023/08/20 14:04:35;;;;;;;11.15;1.70;;;;;;;;;;4947807;28;100053;-84
2023/08/20 14:07:02;;;;;;;6.95;1.30;;;;;;;;;;4945032;28;98472;-84
2023/08/20 14:09:28;;;;;;;5.22;1.38;;;;;;;;;;4945619;28;99245;-84
2023/08/20 14:11:55;;;;;;;3.72;1.25;;;;;;;;;;4944386;28;99900;-84
2023/08/20 14:14:21;;;;;;;6.65;1.35;;;;;;;;;;4949283;28;99094;-84
2023/08/20 14:16:48;;;;;;;4.60;1.23;;;;;;;;;;4947585;28;99034;-84
2023/08/20 14:19:15;;;;;;;6.20;1.27;;;;;;;;;;4947616;28;98773;-84
2023/08/20 14:21:41;;;;;;;4.07;1.10;;;;;;;;;;4942512;28;99780;-84
2023/08/20 14:24:08;;;;;;;4.07;1.27;;;;;;;;;;4944459;28;100004;-84
2023/08/20 14:26:35;;;;;;;7.30;1.30;;;;;;;;;;4944469;28;98554;-84
2023/08/20 14:29:01;;;;;;;4.78;1.42;;;;;;;;;;4930403;28;99263;-84
2023/08/20 14:31:30;;;;;;;5.25;1.27;;;;;;;;;;4941478;28;99160;-83
2023/08/20 14:33:57;;;;;;;4.57;1.30;;;;;;;;;;4947189;28;98667;-84
2023/08/20 14:36:23;;;;;;;7.07;1.45;;;;;;;;;;4945993;28;99169;-84
2023/08/20 14:38:50;;;;;;;5.38;1.30;;;;;;;;;;4933762;28;98479;-83
2023/08/20 14:41:16;;;;;;;4.53;1.20;;;;;;;;;;4947394;28;98858;-83
2023/08/20 14:43:43;;;;;;;6.95;1.40;;;;;;;;;;4940119;28;98972;-83
2023/08/20 14:46:10;;;;;;;4.05;1.20;;;;;;;;;;4947666;28;97834;-83